Stephen M. White — WCU6542 — position and weather

sailwx.info

Track history (hours):
 
Tides and Currents Weather Stations Pressure Air Temp Water Temp Dewpoint Dewpoint Depression Visibility Wind Speed Wind Dir Waves Ship Positions

Stephen M. White

Owner: LOS ANGELES, CITY OF, SAN PEDRO, CA. More information available from US FCC via Universal Licensing System and Coast Guard Vessel Documentation Center.

Last reported at 2016-Oct-01 04:33 UTC. Time now 2016-Oct-01 04:49 UTC.
Position N 33°43' W 118°16'.

Length 13 m.

Type: Other ship. MMSI: 367049470.

Date/timePositionNaut miles runAvg speedWind from/ knotsBaromVisibWave heightAir tempDewpointWater temp
2016-Oct-01 04:33N 33°43' W 118°16'0 0.0
2016-Oct-01 03:33N 33°43' W 118°16'0 0.0
2016-Oct-01 00:33N 33°43' W 118°16'0 0.0
2016-Sep-30 22:33N 33°43' W 118°16'0 0.0
2016-Sep-30 20:33N 33°43' W 118°16'3 1.0
2016-Sep-30 17:34N 33°41' W 118°14'3 2.9
2016-Sep-30 16:33N 33°43' W 118°16'0 0.0
2016-Sep-30 14:33N 33°43' W 118°16'1 1.0
2016-Sep-30 13:31N 33°43' W 118°15'1 0.4
2016-Sep-30 10:34N 33°43' W 118°16'0 0.0
2016-Sep-30 08:34N 33°43' W 118°16'0 0.0
2016-Sep-30 06:34N 33°43' W 118°16'0 0.0
2016-Sep-30 03:33N 33°43' W 118°16'1 1.3
2016-Sep-30 02:33N 33°43' W 118°15'1 0.4
2016-Sep-29 23:33N 33°43' W 118°16'0 0.0
2016-Sep-29 21:33N 33°43' W 118°16'0 0.0
2016-Sep-29 20:33N 33°43' W 118°16'0 0.0
2016-Sep-29 19:33N 33°43' W 118°16'0 0.0
2016-Sep-29 16:33N 33°43' W 118°16'0 0.0
2016-Sep-29 15:33N 33°43' W 118°16'0 0.0
2016-Sep-29 14:33N 33°43' W 118°16'0 0.5
2016-Sep-29 13:34N 33°43' W 118°16'0 0.1
2016-Sep-29 08:29N 33°43' W 118°16'0 0.0
2016-Sep-29 07:33N 33°43' W 118°16'0 0.0
2016-Sep-28 21:33N 33°43' W 118°16'0 0.0
2016-Sep-28 19:33N 33°43' W 118°16'0 0.0
2016-Sep-28 16:33N 33°43' W 118°16'2 2.2
2016-Sep-28 15:30N 33°46' W 118°16'0 0.0
2016-Sep-28 08:33N 33°46' W 118°16'0 0.0
2016-Sep-28 02:10N 33°46' W 118°16'0 0.0
2016-Sep-28 01:33N 33°46' W 118°16'0 0.0
2016-Sep-27 23:33N 33°46' W 118°16'0 0.0
2016-Sep-26 08:14N 33°46' W 118°16'0 0.0
2016-Sep-25 15:33N 33°46' W 118°16'2 2.4
2016-Sep-25 14:32N 33°43' W 118°16'0 0.0
2016-Sep-25 11:34N 33°43' W 118°16'0 0.0
2016-Sep-25 10:34N 33°43' W 118°16'0 0.0
2016-Sep-25 09:32N 33°43' W 118°16'0 0.0
2016-Sep-25 07:33N 33°43' W 118°16'0 0.0
2016-Sep-25 04:34N 33°43' W 118°16'0 0.0
2016-Sep-25 00:33N 33°43' W 118°16'0 0.0
2016-Sep-24 22:33N 33°43' W 118°16'0 0.0
2016-Sep-24 21:33N 33°43' W 118°16'0 0.0
2016-Sep-24 19:34N 33°43' W 118°16'0 0.0
2016-Sep-24 18:33N 33°43' W 118°16'0 0.0
2016-Sep-24 17:32N 33°43' W 118°16'0 0.0
2016-Sep-24 16:33N 33°43' W 118°16'1 0.3
2016-Sep-24 14:34N 33°44' W 118°17'1 0.6
2016-Sep-24 12:34N 33°43' W 118°16'0 0.2
2016-Sep-24 10:33N 33°43' W 118°16'0 0.3
2016-Sep-24 09:33N 33°43' W 118°16'0 0.0
2016-Sep-24 03:31N 33°43' W 118°16'0 0.0
2016-Sep-24 02:28N 33°43' W 118°16'0 0.0
2016-Sep-24 01:27N 33°43' W 118°16'0 0.0
2016-Sep-24 00:33N 33°43' W 118°16'5 0.1
2016-Sep-22 12:33N 33°39' W 118°13'5 0.6
2016-Sep-22 04:33N 33°43' W 118°16'0 0.0
2016-Sep-22 03:32N 33°43' W 118°16'  
Track history (hours):
 
Tides and Currents Weather Stations Pressure Air Temp Water Temp Dewpoint Dewpoint Depression Visibility Wind Speed Wind Dir Waves Ship Positions

Stephen M. White

Owner: LOS ANGELES, CITY OF, SAN PEDRO, CA. More information available from US FCC via Universal Licensing System and Coast Guard Vessel Documentation Center.

Last reported at 2016-Oct-01 04:33 UTC. Time now 2016-Oct-01 04:49 UTC.
Position N 33°43' W 118°16'.

Length 13 m.

Type: Other ship. MMSI: 367049470.

Date/timePositionNaut miles runAvg speedWind from/ knotsBaromVisibWave heightAir tempDewpointWater temp
2016-Oct-01 04:33N 33°43' W 118°16'0 0.0
2016-Oct-01 03:33N 33°43' W 118°16'0 0.0
2016-Oct-01 00:33N 33°43' W 118°16'0 0.0
2016-Sep-30 22:33N 33°43' W 118°16'0 0.0
2016-Sep-30 20:33N 33°43' W 118°16'3 1.0
2016-Sep-30 17:34N 33°41' W 118°14'3 2.9
2016-Sep-30 16:33N 33°43' W 118°16'0 0.0
2016-Sep-30 14:33N 33°43' W 118°16'1 1.0
2016-Sep-30 13:31N 33°43' W 118°15'1 0.4
2016-Sep-30 10:34N 33°43' W 118°16'0 0.0
2016-Sep-30 08:34N 33°43' W 118°16'0 0.0
2016-Sep-30 06:34N 33°43' W 118°16'0 0.0
2016-Sep-30 03:33N 33°43' W 118°16'1 1.3
2016-Sep-30 02:33N 33°43' W 118°15'1 0.4
2016-Sep-29 23:33N 33°43' W 118°16'0 0.0
2016-Sep-29 21:33N 33°43' W 118°16'0 0.0
2016-Sep-29 20:33N 33°43' W 118°16'0 0.0
2016-Sep-29 19:33N 33°43' W 118°16'0 0.0
2016-Sep-29 16:33N 33°43' W 118°16'0 0.0
2016-Sep-29 15:33N 33°43' W 118°16'0 0.0
2016-Sep-29 14:33N 33°43' W 118°16'0 0.5
2016-Sep-29 13:34N 33°43' W 118°16'0 0.1
2016-Sep-29 08:29N 33°43' W 118°16'0 0.0
2016-Sep-29 07:33N 33°43' W 118°16'0 0.0
2016-Sep-28 21:33N 33°43' W 118°16'0 0.0
2016-Sep-28 19:33N 33°43' W 118°16'0 0.0
2016-Sep-28 16:33N 33°43' W 118°16'2 2.2
2016-Sep-28 15:30N 33°46' W 118°16'0 0.0
2016-Sep-28 08:33N 33°46' W 118°16'0 0.0
2016-Sep-28 02:10N 33°46' W 118°16'0 0.0
2016-Sep-28 01:33N 33°46' W 118°16'0 0.0
2016-Sep-27 23:33N 33°46' W 118°16'0 0.0
2016-Sep-26 08:14N 33°46' W 118°16'0 0.0
2016-Sep-25 15:33N 33°46' W 118°16'2 2.4
2016-Sep-25 14:32N 33°43' W 118°16'0 0.0
2016-Sep-25 11:34N 33°43' W 118°16'0 0.0
2016-Sep-25 10:34N 33°43' W 118°16'0 0.0
2016-Sep-25 09:32N 33°43' W 118°16'0 0.0
2016-Sep-25 07:33N 33°43' W 118°16'0 0.0
2016-Sep-25 04:34N 33°43' W 118°16'0 0.0
2016-Sep-25 00:33N 33°43' W 118°16'0 0.0
2016-Sep-24 22:33N 33°43' W 118°16'0 0.0
2016-Sep-24 21:33N 33°43' W 118°16'0 0.0
2016-Sep-24 19:34N 33°43' W 118°16'0 0.0
2016-Sep-24 18:33N 33°43' W 118°16'0 0.0
2016-Sep-24 17:32N 33°43' W 118°16'0 0.0
2016-Sep-24 16:33N 33°43' W 118°16'1 0.3
2016-Sep-24 14:34N 33°44' W 118°17'1 0.6
2016-Sep-24 12:34N 33°43' W 118°16'0 0.2
2016-Sep-24 10:33N 33°43' W 118°16'0 0.3
2016-Sep-24 09:33N 33°43' W 118°16'0 0.0
2016-Sep-24 03:31N 33°43' W 118°16'0 0.0
2016-Sep-24 02:28N 33°43' W 118°16'0 0.0
2016-Sep-24 01:27N 33°43' W 118°16'0 0.0
2016-Sep-24 00:33N 33°43' W 118°16'5 0.1
2016-Sep-22 12:33N 33°39' W 118°13'5 0.6
2016-Sep-22 04:33N 33°43' W 118°16'0 0.0
2016-Sep-22 03:32N 33°43' W 118°16'  

Dump ship's entire track history